createdAt,value
2018-12-06T00:00:18.774Z,99293.02
2018-12-06T00:02:48.550Z,99282.96
2018-12-06T00:05:18.615Z,99276.12
2018-12-06T00:07:59.016Z,99253.00
2018-12-06T00:10:29.335Z,99252.66
2018-12-06T00:12:58.804Z,99272.70
2018-12-06T00:15:29.686Z,99247.73
2018-12-06T00:18:00.010Z,99267.34
2018-12-06T00:20:29.825Z,99240.39
2018-12-06T00:22:59.804Z,99248.56
2018-12-06T00:25:31.013Z,99256.25
2018-12-06T00:28:01.067Z,99260.00
2018-12-06T00:30:40.465Z,99256.25
2018-12-06T00:33:10.889Z,99253.28
2018-12-06T00:35:41.128Z,99250.62
2018-12-06T00:38:11.177Z,99246.83
2018-12-06T00:40:40.650Z,99245.00
2018-12-06T00:43:10.710Z,99248.31
2018-12-06T00:45:40.956Z,99243.67
2018-12-06T00:48:11.362Z,99243.02
2018-12-06T00:50:41.365Z,99199.79
2018-12-06T00:53:11.425Z,99232.14
2018-12-06T00:55:42.463Z,99217.85
2018-12-06T00:58:12.439Z,99230.10
2018-12-06T01:00:42.538Z,99233.26
2018-12-06T01:03:12.253Z,99217.61
2018-12-06T01:05:42.304Z,99222.91
2018-12-06T01:08:11.788Z,99225.17
2018-12-06T01:10:42.028Z,99216.14
2018-12-06T01:13:12.030Z,99202.81
2018-12-06T01:15:42.037Z,99215.59
2018-12-06T01:18:12.365Z,99215.48
2018-12-06T01:20:42.514Z,99210.66
2018-12-06T01:23:13.147Z,99170.55
2018-12-06T01:25:43.520Z,99216.86
2018-12-06T01:28:13.566Z,99211.34
2018-12-06T01:30:43.706Z,99205.22
2018-12-06T01:33:14.107Z,99195.55
2018-12-06T01:35:44.153Z,99169.59
2018-12-06T01:38:14.257Z,99192.97
2018-12-06T01:40:44.361Z,99192.91
2018-12-06T01:43:14.413Z,99186.77
2018-12-06T01:45:45.085Z,99178.16
2018-12-06T01:48:15.082Z,99168.59
2018-12-06T01:50:45.881Z,99167.75
2018-12-06T01:53:15.908Z,99155.21
2018-12-06T01:55:45.760Z,99151.94
2018-12-06T01:58:16.111Z,99172.16
2018-12-06T02:00:45.923Z,99116.03
2018-12-06T02:03:16.042Z,99135.80
2018-12-06T02:05:46.003Z,99139.31
2018-12-06T02:08:16.470Z,99148.53
2018-12-06T02:10:46.463Z,99144.51
2018-12-06T02:13:17.026Z,99115.08
2018-12-06T02:15:48.090Z,99139.80
2018-12-06T02:18:18.074Z,99125.35
2018-12-06T02:20:48.091Z,99138.75
2018-12-06T02:23:18.607Z,99104.06
2018-12-06T02:25:48.650Z,99140.61
2018-12-06T02:28:19.531Z,99139.37
2018-12-06T02:30:49.880Z,99132.20
2018-12-06T02:33:20.567Z,99015.48
2018-12-06T02:35:50.595Z,99124.78
2018-12-06T02:38:21.105Z,99122.41
2018-12-06T02:40:51.164Z,99122.95
2018-12-06T02:43:21.395Z,99100.10
2018-12-06T02:45:51.783Z,99132.11
2018-12-06T02:48:21.758Z,99117.89
2018-12-06T02:50:51.809Z,99122.38
2018-12-06T02:53:22.943Z,99123.36
2018-12-06T02:55:52.942Z,99111.41
2018-12-06T02:58:23.596Z,99095.77
2018-12-06T03:00:55.007Z,99116.95
2018-12-06T03:03:25.118Z,99104.06
2018-12-06T03:05:55.177Z,99109.17
2018-12-06T03:08:25.840Z,99103.25
2018-12-06T03:10:55.885Z,99063.64
2018-12-06T03:13:25.924Z,99094.27
2018-12-06T03:15:56.243Z,99073.02
2018-12-06T03:18:26.351Z,99084.59
2018-12-06T03:20:56.326Z,99079.99
2018-12-06T03:23:26.870Z,99101.11
2018-12-06T03:25:56.974Z,99061.67
2018-12-06T03:28:26.951Z,99021.05
2018-12-06T03:30:58.005Z,99049.59
2018-12-06T03:33:28.760Z,99054.06
2018-12-06T03:35:58.923Z,99051.77
2018-12-06T03:38:29.342Z,99040.14
2018-12-06T03:40:59.331Z,99050.32
2018-12-06T03:43:30.263Z,99061.64
2018-12-06T03:46:00.657Z,99056.50
2018-12-06T03:48:30.439Z,99048.53
2018-12-06T03:51:00.558Z,99050.97
2018-12-06T03:53:30.840Z,99052.22
2018-12-06T03:56:00.918Z,99046.09
2018-12-06T03:58:30.990Z,99044.70
2018-12-06T04:01:01.363Z,99040.49
2018-12-06T04:03:31.434Z,99000.80
2018-12-06T04:06:01.503Z,98995.20
2018-12-06T04:08:31.537Z,99032.41
2018-12-06T04:11:01.509Z,99045.00
2018-12-06T04:13:31.702Z,99048.16
2018-12-06T04:16:01.718Z,99049.93
2018-12-06T04:18:31.807Z,99055.00
2018-12-06T04:21:02.462Z,99064.41
2018-12-06T04:23:32.586Z,99052.37
2018-12-06T04:26:02.502Z,99071.78
2018-12-06T04:28:32.650Z,99070.94
2018-12-06T04:31:07.163Z,99074.62
2018-12-06T04:33:38.055Z,99076.80
2018-12-06T04:36:08.092Z,99071.98
2018-12-06T04:38:39.191Z,99072.58
2018-12-06T04:41:08.992Z,99054.80
2018-12-06T04:46:16.840Z,98902.00
2018-12-06T04:48:46.818Z,99083.45
2018-12-06T04:51:17.210Z,99081.47
2018-12-06T04:53:47.282Z,99077.08
2018-12-06T04:56:17.378Z,99030.97
2018-12-06T04:58:47.759Z,99087.30
2018-12-06T05:01:17.814Z,99086.63
2018-12-06T05:03:47.731Z,99081.42
2018-12-06T05:06:18.055Z,99084.12
2018-12-06T05:08:48.231Z,99086.64
2018-12-06T05:11:18.531Z,99095.78
2018-12-06T05:13:48.531Z,99089.64
2018-12-06T05:16:19.109Z,99047.88
2018-12-06T05:18:49.249Z,99080.69
2018-12-06T05:21:19.945Z,99085.30
2018-12-06T05:23:51.369Z,99085.69
2018-12-06T05:26:21.464Z,99088.86
2018-12-06T05:28:51.687Z,99076.95
2018-12-06T05:31:22.117Z,99079.25
2018-12-06T05:33:52.798Z,99074.42
2018-12-06T05:36:24.111Z,99066.47
2018-12-06T05:38:53.733Z,99064.09
2018-12-06T05:41:23.649Z,99068.78
2018-12-06T05:43:53.895Z,99068.39
2018-12-06T05:46:23.350Z,99065.80
2018-12-06T05:48:53.882Z,99059.70
2018-12-06T05:51:23.970Z,99066.19
2018-12-06T05:53:53.887Z,99013.18
2018-12-06T05:56:24.547Z,99049.55
2018-12-06T05:58:54.922Z,99062.39
2018-12-06T06:01:25.330Z,99052.39
2018-12-06T06:04:00.556Z,98994.70
2018-12-06T06:06:31.027Z,99039.47
2018-12-06T06:09:01.823Z,99034.79
2018-12-06T06:11:32.051Z,99039.01
2018-12-06T06:14:02.947Z,99049.22
2018-12-06T06:16:32.547Z,99057.69
2018-12-06T06:19:02.240Z,99026.76
2018-12-06T06:21:32.504Z,99062.20
2018-12-06T06:24:02.721Z,99067.59
2018-12-06T06:26:32.229Z,99064.04
2018-12-06T06:29:02.584Z,99063.05
2018-12-06T06:31:32.163Z,99067.97
2018-12-06T06:34:01.807Z,99061.84
2018-12-06T06:36:31.686Z,99063.05
2018-12-06T06:39:01.365Z,99061.84
2018-12-06T06:41:30.898Z,99066.59
2018-12-06T06:44:01.176Z,99077.73
2018-12-06T06:46:30.834Z,99079.83
2018-12-06T06:49:00.468Z,99085.13
2018-12-06T06:51:30.876Z,99087.14
2018-12-06T06:54:00.884Z,99027.33
2018-12-06T06:56:30.434Z,99093.13
2018-12-06T06:59:00.364Z,99103.08
2018-12-06T07:01:30.068Z,99104.70
2018-12-06T07:04:00.430Z,99102.07
2018-12-06T07:06:30.253Z,99116.44
2018-12-06T07:08:59.935Z,99108.27
2018-12-06T07:11:29.472Z,99113.02
2018-12-06T07:13:59.856Z,99108.27
2018-12-06T07:16:29.363Z,99100.30
2018-12-06T07:18:59.955Z,99094.70
2018-12-06T07:21:29.845Z,99084.31
2018-12-06T07:23:59.319Z,99059.48
2018-12-06T07:26:30.097Z,99083.82
2018-12-06T07:28:59.914Z,99062.22
2018-12-06T07:31:29.460Z,99070.58
2018-12-06T07:33:59.056Z,99068.73
2018-12-06T07:36:29.321Z,99045.19
2018-12-06T07:38:59.306Z,98837.98
2018-12-06T07:41:28.946Z,99028.11
2018-12-06T07:43:59.283Z,99068.70
2018-12-06T07:46:28.790Z,99082.73
2018-12-06T07:48:58.765Z,98949.96
2018-12-06T07:51:28.808Z,99082.13
2018-12-06T07:53:58.364Z,99090.12
2018-12-06T07:56:27.974Z,98950.31
2018-12-06T07:58:57.728Z,99125.14
2018-12-06T08:01:27.416Z,99070.20
2018-12-06T08:03:57.207Z,99114.17
2018-12-06T08:06:27.220Z,99104.77
2018-12-06T08:08:56.719Z,99111.89
2018-12-06T08:11:26.428Z,99121.91
2018-12-06T08:13:56.991Z,99133.47
2018-12-06T08:16:26.564Z,99139.27
2018-12-06T08:18:56.182Z,99148.48
2018-12-06T08:21:26.638Z,99148.57
2018-12-06T08:23:56.175Z,99144.22
2018-12-06T08:26:25.693Z,99152.85
2018-12-06T08:28:55.594Z,99156.09
2018-12-06T08:31:25.149Z,99162.27
2018-12-06T08:33:54.738Z,99141.31
2018-12-06T08:36:24.902Z,99063.72
2018-12-06T08:38:54.468Z,99174.58
2018-12-06T08:41:24.219Z,99171.11
2018-12-06T08:43:54.921Z,99028.34
2018-12-06T08:46:24.644Z,99160.45
2018-12-06T08:48:54.159Z,99165.79
2018-12-06T08:51:24.048Z,99083.51
2018-12-06T08:53:54.386Z,99139.54
2018-12-06T08:56:24.022Z,99164.26
2018-12-06T08:58:53.895Z,99162.34
2018-12-06T09:01:23.578Z,99176.05
2018-12-06T09:03:53.292Z,99173.52
2018-12-06T09:06:23.379Z,99162.09
2018-12-06T09:08:52.884Z,99175.05
2018-12-06T09:11:22.482Z,99162.80
2018-12-06T09:13:52.375Z,99172.38
2018-12-06T09:16:21.931Z,99162.50
2018-12-06T09:18:51.442Z,99167.72
2018-12-06T09:21:21.394Z,99168.63
2018-12-06T09:23:50.947Z,99153.61
2018-12-06T09:26:20.530Z,99167.34
2018-12-06T09:28:50.637Z,99174.05
2018-12-06T09:31:20.390Z,99176.59
2018-12-06T09:34:00.019Z,99189.36
2018-12-06T09:36:29.863Z,99153.05
2018-12-06T09:38:59.959Z,99230.06
2018-12-06T09:41:30.556Z,99211.40
2018-12-06T09:44:01.007Z,99208.48
2018-12-06T09:46:33.886Z,99209.94
2018-12-06T09:49:05.118Z,99200.06
2018-12-06T09:51:35.491Z,99208.25
2018-12-06T09:54:05.195Z,99200.25
2018-12-06T09:56:34.986Z,99197.68
2018-12-06T09:59:05.320Z,99127.50
2018-12-06T10:01:34.858Z,99212.03
2018-12-06T10:04:04.422Z,99229.73
2018-12-06T10:06:34.355Z,99240.55
2018-12-06T10:09:04.226Z,99240.23
2018-12-06T10:11:33.982Z,99239.31
2018-12-06T10:14:03.959Z,99233.38
2018-12-06T10:16:33.606Z,99090.72
2018-12-06T10:19:03.170Z,99227.12
2018-12-06T10:21:33.010Z,99232.97
2018-12-06T10:24:02.555Z,99211.02
2018-12-06T10:26:32.133Z,99199.78
2018-12-06T10:29:02.995Z,99191.61
2018-12-06T10:31:33.706Z,99191.23
2018-12-06T10:34:04.886Z,99194.37
2018-12-06T10:36:34.522Z,99202.63
2018-12-06T10:39:04.901Z,99185.36
2018-12-06T10:41:34.404Z,99186.81
2018-12-06T10:44:04.615Z,99175.59
2018-12-06T10:46:34.487Z,99166.88
2018-12-06T10:49:05.138Z,99166.88
2018-12-06T10:51:42.742Z,99168.05
2018-12-06T10:54:12.270Z,99159.73
2018-12-06T10:56:42.102Z,99154.39
2018-12-06T10:59:12.330Z,99156.48
2018-12-06T11:01:46.831Z,99145.07
2018-12-06T11:04:17.135Z,99145.16
2018-12-06T11:06:47.199Z,99198.16
2018-12-06T11:09:17.610Z,99141.83
2018-12-06T11:11:48.202Z,99141.93
2018-12-06T11:14:17.671Z,99138.30
2018-12-06T11:16:47.698Z,99132.59
2018-12-06T11:19:19.234Z,99135.44
2018-12-06T11:21:48.742Z,99133.13
2018-12-06T11:24:18.758Z,99138.91
2018-12-06T11:26:48.530Z,99139.45
2018-12-06T11:29:18.010Z,99137.36
2018-12-06T11:31:48.110Z,99140.64
2018-12-06T11:34:18.456Z,99140.55
2018-12-06T11:36:48.552Z,99146.19
2018-12-06T11:39:18.070Z,99155.59
2018-12-06T11:41:48.088Z,99158.81
2018-12-06T11:44:18.002Z,99157.09
2018-12-06T11:46:47.533Z,99167.20
2018-12-06T11:49:17.614Z,99142.17
2018-12-06T11:51:47.710Z,99159.20
2018-12-06T11:54:17.279Z,99158.34
2018-12-06T11:56:47.174Z,99155.02
2018-12-06T11:59:16.712Z,99153.30
2018-12-06T12:01:46.239Z,99159.61
2018-12-06T12:04:16.582Z,99149.13
2018-12-06T12:06:46.079Z,99146.58
2018-12-06T12:09:16.223Z,99145.58
2018-12-06T12:11:45.599Z,99139.47
2018-12-06T12:14:15.638Z,99139.25
2018-12-06T12:16:45.244Z,99142.33
2018-12-06T12:19:14.813Z,99132.51
2018-12-06T12:21:44.351Z,99143.81
2018-12-06T12:24:13.866Z,99140.37
2018-12-06T12:26:43.945Z,99140.34
2018-12-06T12:29:13.506Z,99117.68
2018-12-06T12:31:43.004Z,99129.86
2018-12-06T12:34:13.000Z,99133.91
2018-12-06T12:36:42.505Z,99121.93
2018-12-06T12:39:12.046Z,99110.64
2018-12-06T12:41:41.885Z,99062.49
2018-12-06T12:44:11.429Z,99085.55
2018-12-06T12:46:40.965Z,99074.22
2018-12-06T12:49:10.764Z,99061.41
2018-12-06T12:51:40.359Z,99076.70
2018-12-06T12:54:09.879Z,99136.66
2018-12-06T12:56:39.603Z,99086.20
2018-12-06T12:59:09.659Z,99086.81
2018-12-06T13:01:39.226Z,99079.77
2018-12-06T13:04:09.706Z,99084.38
2018-12-06T13:06:39.819Z,99091.77
2018-12-06T13:09:10.257Z,99092.97
2018-12-06T13:11:40.089Z,99108.09
2018-12-06T13:14:10.618Z,99116.25
2018-12-06T13:16:40.176Z,99112.42
2018-12-06T13:19:10.083Z,99111.20
2018-12-06T13:21:39.650Z,99006.92
2018-12-06T13:24:09.309Z,99079.84
2018-12-06T13:26:39.155Z,99125.98
2018-12-06T13:29:08.827Z,99119.26
2018-12-06T13:31:38.490Z,99129.77
2018-12-06T13:34:08.355Z,99124.34
2018-12-06T13:36:37.882Z,99137.34
2018-12-06T13:39:07.579Z,99134.26
2018-12-06T13:41:37.383Z,99143.17
2018-12-06T13:44:06.914Z,99146.13
2018-12-06T13:46:36.450Z,99133.05
2018-12-06T13:49:06.248Z,99141.26
2018-12-06T13:51:36.114Z,99142.70
2018-12-06T13:54:07.303Z,99146.19
2018-12-06T13:56:37.125Z,99150.48
2018-12-06T13:59:06.619Z,99155.77
2018-12-06T14:01:38.090Z,99170.00
2018-12-06T14:04:08.746Z,99172.86
2018-12-06T14:06:41.728Z,99174.34
2018-12-06T14:09:11.334Z,99171.64
2018-12-06T14:11:41.891Z,99139.09
2018-12-06T14:14:11.962Z,99174.50
2018-12-06T14:16:42.628Z,99180.02
2018-12-06T14:19:12.984Z,99181.70
2018-12-06T14:21:43.338Z,99181.48
2018-12-06T14:24:13.872Z,99183.59
2018-12-06T14:26:44.706Z,99177.90
2018-12-06T14:29:14.407Z,99190.04
2018-12-06T14:31:43.906Z,99194.76
2018-12-06T14:34:13.971Z,99193.45
2018-12-06T14:36:44.533Z,99197.37
2018-12-06T14:39:14.825Z,99195.37
2018-12-06T14:41:45.865Z,99193.20
2018-12-06T14:44:15.546Z,99192.28
2018-12-06T14:46:46.086Z,99199.23
2018-12-06T14:49:20.650Z,99199.87
2018-12-06T14:51:50.575Z,99196.23
2018-12-06T14:54:21.128Z,99205.42
2018-12-06T14:56:51.202Z,99214.45
2018-12-06T14:59:20.987Z,99199.78
2018-12-06T15:01:50.802Z,99195.22
2018-12-06T15:04:22.050Z,99190.67
2018-12-06T15:06:51.920Z,99204.94
2018-12-06T15:09:22.779Z,99203.28
2018-12-06T15:11:53.661Z,99206.88
2018-12-06T15:14:23.360Z,99194.94
2018-12-06T15:16:53.246Z,99204.83
2018-12-06T15:19:24.919Z,99208.74
2018-12-06T15:21:54.697Z,99087.06
2018-12-06T15:24:24.486Z,99217.70
2018-12-06T15:26:54.566Z,99212.31
2018-12-06T15:29:24.255Z,99211.11
2018-12-06T15:31:53.975Z,99222.30
2018-12-06T15:34:23.918Z,99219.43
2018-12-06T15:36:53.772Z,99217.91
2018-12-06T15:39:25.306Z,99211.96
2018-12-06T15:41:55.183Z,99216.73
2018-12-06T15:44:25.294Z,99222.67
2018-12-06T15:46:56.173Z,99145.99
2018-12-06T15:49:26.768Z,99225.70
2018-12-06T15:51:57.225Z,99228.01
2018-12-06T15:54:26.158Z,99215.66
2018-12-06T15:56:56.011Z,99215.83
2018-12-06T15:59:25.539Z,99213.33
2018-12-06T16:01:55.239Z,99209.94
2018-12-06T16:04:25.054Z,99209.55
2018-12-06T16:06:54.607Z,99212.72
2018-12-06T16:09:24.158Z,99207.17
2018-12-06T16:11:54.066Z,99206.95
2018-12-06T16:14:23.638Z,99212.50
2018-12-06T16:16:53.119Z,99205.78
2018-12-06T16:19:22.912Z,99185.14
2018-12-06T16:21:52.518Z,99217.50
2018-12-06T16:24:22.185Z,99219.17
2018-12-06T16:26:56.240Z,99212.01
2018-12-06T16:29:25.823Z,99163.02
2018-12-06T16:31:55.822Z,99201.82
2018-12-06T16:34:25.569Z,99218.19
2018-12-06T16:36:55.414Z,99215.69
2018-12-06T16:39:25.278Z,99206.66
2018-12-06T16:41:54.833Z,99207.58
2018-12-06T16:44:24.366Z,99211.05
2018-12-06T16:46:54.283Z,99208.81
2018-12-06T16:49:23.874Z,99214.50
2018-12-06T16:51:53.454Z,99212.89
2018-12-06T16:54:23.342Z,99215.34
2018-12-06T16:56:52.980Z,99216.89
2018-12-06T16:59:22.479Z,99182.20
2018-12-06T17:01:52.294Z,99206.02
2018-12-06T17:04:21.862Z,99205.90
2018-12-06T17:06:51.458Z,99208.23
2018-12-06T17:09:22.240Z,99220.02
2018-12-06T17:11:51.762Z,99219.46
2018-12-06T17:14:21.465Z,99217.52
2018-12-06T17:16:51.386Z,99218.22
2018-12-06T17:19:20.931Z,99214.19
2018-12-06T17:21:50.566Z,99212.71
2018-12-06T17:24:20.468Z,99209.71
2018-12-06T17:26:50.259Z,99154.70
2018-12-06T17:29:19.755Z,99209.55
2018-12-06T17:31:49.572Z,99211.46
2018-12-06T17:34:19.736Z,99200.48
2018-12-06T17:36:50.767Z,99204.79
2018-12-06T17:39:19.259Z,99206.70
2018-12-06T17:41:48.779Z,99155.90
2018-12-06T17:44:18.337Z,99200.31
2018-12-06T17:46:48.213Z,99198.76
2018-12-06T17:49:17.730Z,99200.76
2018-12-06T17:51:47.232Z,99207.48
2018-12-06T17:54:17.063Z,99204.70
2018-12-06T17:56:46.617Z,99213.91
2018-12-06T17:59:16.183Z,99218.22
2018-12-06T18:01:46.171Z,99200.31
2018-12-06T18:04:15.696Z,99196.03
2018-12-06T18:06:45.239Z,99191.78
2018-12-06T18:09:15.026Z,99199.81
2018-12-06T18:11:44.645Z,99190.61
2018-12-06T18:14:14.315Z,99197.47
2018-12-06T18:16:44.234Z,99195.47
2018-12-06T18:19:14.282Z,99154.66
2018-12-06T18:21:43.802Z,99198.78
2018-12-06T18:24:18.614Z,99195.77
2018-12-06T18:26:43.509Z,99140.03
2018-12-06T18:29:13.011Z,99162.98
2018-12-06T18:31:42.861Z,99165.68
2018-12-06T18:34:12.389Z,99193.13
2018-12-06T18:36:42.028Z,99192.52
2018-12-06T18:39:11.830Z,99185.70
2018-12-06T18:41:41.314Z,99196.13
2018-12-06T18:44:10.854Z,99184.14
2018-12-06T18:46:41.014Z,99167.98
2018-12-06T18:49:10.587Z,99124.37
2018-12-06T18:51:40.357Z,99165.76
2018-12-06T18:54:10.207Z,99164.28
2018-12-06T18:56:39.727Z,99160.24
2018-12-06T18:59:09.702Z,99146.73
2018-12-06T19:01:39.599Z,99149.47
2018-12-06T19:04:09.149Z,99152.16
2018-12-06T19:06:42.816Z,99124.27
2018-12-06T19:09:12.714Z,99146.95
2018-12-06T19:11:42.338Z,99142.69
2018-12-06T19:14:11.876Z,99134.52
2018-12-06T19:16:42.642Z,99145.91
2018-12-06T19:19:12.315Z,99136.56
2018-12-06T19:21:41.915Z,99138.86
2018-12-06T19:24:11.828Z,99138.77
2018-12-06T19:26:41.375Z,99136.77
2018-12-06T19:29:10.924Z,99087.31
2018-12-06T19:31:40.827Z,99131.51
2018-12-06T19:34:10.408Z,99136.59
2018-12-06T19:36:39.944Z,99132.81
2018-12-06T19:39:10.585Z,99109.84
2018-12-06T19:41:40.207Z,99137.16
2018-12-06T19:44:09.678Z,99125.20
2018-12-06T19:46:39.598Z,99113.98
2018-12-06T19:49:09.356Z,99079.81
2018-12-06T19:51:39.539Z,99106.93
2018-12-06T19:54:10.103Z,99113.20
2018-12-06T19:56:39.682Z,99111.84
2018-12-06T19:59:09.243Z,99115.11
2018-12-06T20:01:38.999Z,99113.33
2018-12-06T20:04:08.558Z,99110.63
2018-12-06T20:06:38.198Z,99113.16
2018-12-06T20:09:10.394Z,99101.27
2018-12-06T20:11:39.994Z,99108.98
2018-12-06T20:14:09.543Z,99102.89
2018-12-06T20:16:39.398Z,99098.81
2018-12-06T20:19:08.958Z,99104.23
2018-12-06T20:21:38.452Z,99083.33
2018-12-06T20:24:08.805Z,99109.08
2018-12-06T20:26:38.466Z,99117.33
2018-12-06T20:29:07.988Z,99117.03
2018-12-06T20:31:37.959Z,99109.46
2018-12-06T20:34:07.456Z,99116.16
2018-12-06T20:36:37.008Z,99107.95
2018-12-06T20:39:08.188Z,99057.03
2018-12-06T20:41:37.750Z,99026.88
2018-12-06T20:44:07.763Z,99103.78
2018-12-06T20:46:37.585Z,99120.86
2018-12-06T20:49:07.783Z,99100.16
2018-12-06T20:51:37.315Z,99085.80
2018-12-06T20:54:07.131Z,99104.17
2018-12-06T20:56:36.683Z,99091.91
2018-12-06T20:59:06.272Z,99071.75
2018-12-06T21:01:36.086Z,99080.30
2018-12-06T21:04:05.658Z,99084.52
2018-12-06T21:06:35.307Z,99030.16
2018-12-06T21:09:06.841Z,99077.77
2018-12-06T21:11:36.407Z,99081.50
2018-12-06T21:14:06.496Z,99080.36
2018-12-06T21:16:36.359Z,99084.09
2018-12-06T21:19:05.955Z,99030.97
2018-12-06T21:21:35.501Z,99077.73
2018-12-06T21:24:05.512Z,99078.93
2018-12-06T21:26:35.029Z,99077.54
2018-12-06T21:29:04.630Z,99076.89
2018-12-06T21:31:34.412Z,99070.87
2018-12-06T21:34:03.994Z,99055.04
2018-12-06T21:36:33.594Z,99057.39
2018-12-06T21:39:03.791Z,99060.17
2018-12-06T21:41:33.379Z,99056.75
2018-12-06T21:44:02.966Z,99065.39
2018-12-06T21:46:32.845Z,99065.78
2018-12-06T21:49:02.537Z,99070.86
2018-12-06T21:51:32.114Z,99032.97
2018-12-06T21:54:02.013Z,99070.77
2018-12-06T21:56:31.619Z,99062.32
2018-12-06T21:59:01.174Z,99060.93
2018-12-06T22:01:31.375Z,99061.06
2018-12-06T22:04:01.393Z,99058.57
2018-12-06T22:06:31.351Z,99029.07
2018-12-06T22:09:07.142Z,99050.24
2018-12-06T22:11:37.311Z,99066.89
2018-12-06T22:14:07.583Z,99103.98
2018-12-06T22:16:38.968Z,99068.32
2018-12-06T22:19:09.675Z,99045.91
2018-12-06T22:21:39.829Z,99072.59
2018-12-06T22:24:09.670Z,99053.59
2018-12-06T22:26:39.523Z,99051.14
2018-12-06T22:29:10.081Z,99054.67
2018-12-06T22:31:39.902Z,99058.36
2018-12-06T22:34:09.771Z,99100.28
2018-12-06T22:36:39.990Z,99016.78
2018-12-06T22:39:10.008Z,99049.91
2018-12-06T22:41:39.953Z,99002.02
2018-12-06T22:44:10.592Z,99044.63
2018-12-06T22:46:40.446Z,99042.63
2018-12-06T22:49:10.330Z,99033.50
2018-12-06T22:51:40.521Z,99034.27
2018-12-06T22:54:10.386Z,99036.44
2018-12-06T22:56:45.926Z,99025.56
2018-12-06T22:59:16.726Z,99026.05
2018-12-06T23:01:46.730Z,99028.61
2018-12-06T23:04:16.620Z,99030.12
2018-12-06T23:06:46.847Z,99032.59
2018-12-06T23:09:16.375Z,99028.41
2018-12-06T23:11:46.046Z,99022.97
2018-12-06T23:14:15.719Z,99016.53
2018-12-06T23:16:45.933Z,99012.34
2018-12-06T23:19:15.612Z,99014.91
2018-12-06T23:21:47.313Z,99009.98
2018-12-06T23:24:16.655Z,99015.94
2018-12-06T23:26:46.255Z,99017.01
2018-12-06T23:29:16.651Z,99011.73
2018-12-06T23:31:47.410Z,99010.85
2018-12-06T23:34:17.794Z,99009.20
2018-12-06T23:36:47.318Z,98957.52
2018-12-06T23:39:16.834Z,98998.70
2018-12-06T23:41:46.726Z,98938.89
2018-12-06T23:44:16.846Z,98996.54
2018-12-06T23:46:46.871Z,98989.19
2018-12-06T23:49:17.227Z,98982.00
2018-12-06T23:51:46.779Z,98977.17
2018-12-06T23:54:16.266Z,98833.03
2018-12-06T23:56:46.575Z,98962.89
2018-12-06T23:59:16.072Z,98967.30
